WAT4359 CYVR-MMMY
Flight info
| Callsign | WAT4359 |
|---|---|
| Flight time | N/A |
| Altitude | 37000 |
| Route | SEA DCT IMB J523 ELY DCT CORKR/N0449F390 DCT INW DCT ELP/N0464F380 DCT CJS/N0453F390 UJ54 URKOM UT3 MOV UJ15 MTY |
| Aircraft | A343/H-SDE2E3FGHIJ4J5M1RWXY/LB1D1 |
Departure
| Time | N/A |
|---|---|
| Airport | Vancouver International Airport (CYVR) |
Arrival
| Time | 2026-04-24 00:39 |
|---|---|
| Airport | Monterrey International Airport (MMMY) |
| Time | Latitude | Longitude | Altitude | Speed | Heading |
|---|---|---|---|---|---|
| 2026-04-24 00:00 | 28.86751 | -103.90835 | 38742 ft | 527 kts | 137° |
| 2026-04-24 00:00 | 28.84346 | -103.87677 | 38744 ft | 527 kts | 137° |
| 2026-04-24 00:00 | 28.79531 | -103.81364 | 38745 ft | 527 kts | 137° |
| 2026-04-24 00:01 | 28.74713 | -103.75057 | 38730 ft | 527 kts | 137° |
| 2026-04-24 00:01 | 28.69888 | -103.68750 | 38729 ft | 527 kts | 137° |
| 2026-04-24 00:02 | 28.65069 | -103.62462 | 38715 ft | 526 kts | 137° |
| 2026-04-24 00:02 | 28.60286 | -103.56230 | 38716 ft | 526 kts | 137° |
| 2026-04-24 00:03 | 28.55464 | -103.49957 | 38695 ft | 526 kts | 136° |
| 2026-04-24 00:03 | 28.50637 | -103.43690 | 38710 ft | 529 kts | 136° |
| 2026-04-24 00:04 | 28.45781 | -103.37395 | 38711 ft | 529 kts | 136° |
| 2026-04-24 00:04 | 28.40932 | -103.31113 | 38708 ft | 528 kts | 136° |
| 2026-04-24 00:05 | 28.36091 | -103.24851 | 38713 ft | 528 kts | 136° |
| 2026-04-24 00:05 | 28.31236 | -103.18583 | 38681 ft | 528 kts | 136° |
| 2026-04-24 00:06 | 28.26424 | -103.12381 | 38726 ft | 526 kts | 136° |
| 2026-04-24 00:06 | 28.21583 | -103.06153 | 38726 ft | 527 kts | 136° |
| 2026-04-24 00:07 | 28.16728 | -102.99913 | 38717 ft | 528 kts | 136° |
| 2026-04-24 00:07 | 28.11860 | -102.93672 | 38719 ft | 528 kts | 136° |
| 2026-04-24 00:08 | 28.07002 | -102.87438 | 38726 ft | 527 kts | 136° |
| 2026-04-24 00:08 | 28.02143 | -102.81218 | 38732 ft | 526 kts | 136° |
| 2026-04-24 00:09 | 27.97295 | -102.75023 | 38755 ft | 526 kts | 136° |
| 2026-04-24 00:09 | 27.92412 | -102.68800 | 38752 ft | 532 kts | 136° |
| 2026-04-24 00:10 | 27.87495 | -102.62537 | 38750 ft | 533 kts | 136° |
| 2026-04-24 00:10 | 27.82571 | -102.56268 | 38753 ft | 532 kts | 136° |
| 2026-04-24 00:11 | 27.77649 | -102.50013 | 38744 ft | 532 kts | 136° |
| 2026-04-24 00:11 | 27.72768 | -102.43823 | 38762 ft | 531 kts | 136° |
| 2026-04-24 00:12 | 27.67853 | -102.37601 | 38757 ft | 531 kts | 136° |
| 2026-04-24 00:12 | 27.62934 | -102.31382 | 38763 ft | 530 kts | 136° |
| 2026-04-24 00:13 | 27.58020 | -102.25178 | 38760 ft | 530 kts | 136° |
| 2026-04-24 00:13 | 27.53106 | -102.18982 | 38762 ft | 530 kts | 136° |
| 2026-04-24 00:14 | 27.48192 | -102.12793 | 38758 ft | 528 kts | 136° |
| 2026-04-24 00:14 | 27.45744 | -102.09714 | 38555 ft | 527 kts | 136° |
| 2026-04-24 00:14 | 27.43307 | -102.06650 | 38391 ft | 522 kts | 136° |
| 2026-04-24 00:15 | 27.40902 | -102.03625 | 38223 ft | 514 kts | 135° |
| 2026-04-24 00:15 | 27.38516 | -102.00629 | 37744 ft | 514 kts | 135° |
| 2026-04-24 00:15 | 27.36116 | -101.97622 | 37188 ft | 516 kts | 135° |
| 2026-04-24 00:15 | 27.33746 | -101.94654 | 36616 ft | 518 kts | 135° |
| 2026-04-24 00:16 | 27.31332 | -101.91632 | 36050 ft | 520 kts | 135° |
| 2026-04-24 00:16 | 27.28908 | -101.88600 | 35448 ft | 523 kts | 135° |
| 2026-04-24 00:16 | 27.27266 | -101.86544 | 34995 ft | 523 kts | 134° |
| 2026-04-24 00:16 | 27.24033 | -101.82499 | 34151 ft | 527 kts | 135° |
| 2026-04-24 00:17 | 27.21575 | -101.79428 | 33446 ft | 530 kts | 135° |
| 2026-04-24 00:17 | 27.19908 | -101.77348 | 32934 ft | 531 kts | 135° |
| 2026-04-24 00:17 | 27.17428 | -101.74254 | 32199 ft | 533 kts | 135° |
| 2026-04-24 00:17 | 27.14977 | -101.71198 | 31489 ft | 535 kts | 135° |
| 2026-04-24 00:18 | 27.12482 | -101.68090 | 30881 ft | 534 kts | 135° |
| 2026-04-24 00:18 | 27.10007 | -101.65007 | 30374 ft | 530 kts | 135° |
| 2026-04-24 00:18 | 27.07545 | -101.61943 | 29852 ft | 527 kts | 135° |
| 2026-04-24 00:18 | 27.04600 | -101.58281 | 29179 ft | 523 kts | 135° |
| 2026-04-24 00:19 | 27.02170 | -101.55261 | 28660 ft | 518 kts | 135° |
| 2026-04-24 00:19 | 26.99765 | -101.52276 | 28129 ft | 513 kts | 135° |
| 2026-04-24 00:19 | 26.97382 | -101.49323 | 27632 ft | 509 kts | 134° |
| 2026-04-24 00:19 | 26.95018 | -101.46394 | 27138 ft | 504 kts | 135° |
| 2026-04-24 00:20 | 26.92642 | -101.43523 | 26615 ft | 501 kts | 136° |
| 2026-04-24 00:20 | 26.90241 | -101.40706 | 26108 ft | 497 kts | 136° |
| 2026-04-24 00:20 | 26.87845 | -101.37931 | 25594 ft | 494 kts | 136° |
| 2026-04-24 00:20 | 26.85464 | -101.35179 | 25094 ft | 491 kts | 136° |
| 2026-04-24 00:21 | 26.83099 | -101.32439 | 24587 ft | 488 kts | 136° |
| 2026-04-24 00:21 | 26.80770 | -101.29733 | 24091 ft | 486 kts | 136° |
| 2026-04-24 00:21 | 26.78425 | -101.27001 | 23579 ft | 485 kts | 136° |
| 2026-04-24 00:21 | 26.76091 | -101.24276 | 23015 ft | 483 kts | 136° |
| 2026-04-24 00:22 | 26.73779 | -101.21578 | 22485 ft | 479 kts | 136° |
| 2026-04-24 00:22 | 26.71479 | -101.18890 | 21946 ft | 475 kts | 136° |
| 2026-04-24 00:22 | 26.69233 | -101.16267 | 21474 ft | 470 kts | 136° |
| 2026-04-24 00:22 | 26.66981 | -101.13641 | 20986 ft | 466 kts | 136° |
| 2026-04-24 00:23 | 26.64747 | -101.11039 | 20488 ft | 462 kts | 136° |
| 2026-04-24 00:23 | 26.62526 | -101.08454 | 20008 ft | 458 kts | 136° |
| 2026-04-24 00:23 | 26.60327 | -101.05896 | 19544 ft | 453 kts | 136° |
| 2026-04-24 00:23 | 26.58153 | -101.03369 | 19087 ft | 448 kts | 136° |
| 2026-04-24 00:24 | 26.56006 | -101.00874 | 18705 ft | 442 kts | 136° |
| 2026-04-24 00:24 | 26.53889 | -100.98416 | 18266 ft | 438 kts | 136° |
| 2026-04-24 00:24 | 26.51781 | -100.95969 | 17723 ft | 434 kts | 136° |
| 2026-04-24 00:24 | 26.49702 | -100.93557 | 17223 ft | 429 kts | 136° |
| 2026-04-24 00:25 | 26.47668 | -100.91198 | 16740 ft | 424 kts | 136° |
| 2026-04-24 00:25 | 26.45631 | -100.88837 | 16265 ft | 420 kts | 136° |
| 2026-04-24 00:25 | 26.43609 | -100.86495 | 15785 ft | 416 kts | 136° |
| 2026-04-24 00:25 | 26.41611 | -100.84182 | 15324 ft | 412 kts | 136° |
| 2026-04-24 00:26 | 26.39628 | -100.81888 | 14847 ft | 408 kts | 136° |
| 2026-04-24 00:26 | 26.37605 | -100.79682 | 14377 ft | 404 kts | 140° |
| 2026-04-24 00:26 | 26.35523 | -100.77591 | 13894 ft | 401 kts | 141° |
| 2026-04-24 00:26 | 26.33425 | -100.75556 | 13413 ft | 398 kts | 142° |
| 2026-04-24 00:27 | 26.31275 | -100.73650 | 12896 ft | 392 kts | 150° |
| 2026-04-24 00:27 | 26.28917 | -100.72290 | 12470 ft | 383 kts | 159° |
| 2026-04-24 00:27 | 26.26495 | -100.71098 | 12027 ft | 379 kts | 159° |
| 2026-04-24 00:27 | 26.24087 | -100.69917 | 11545 ft | 376 kts | 159° |
| 2026-04-24 00:28 | 26.21697 | -100.68747 | 11070 ft | 373 kts | 160° |
| 2026-04-24 00:28 | 26.19330 | -100.67583 | 10607 ft | 370 kts | 159° |
| 2026-04-24 00:28 | 26.16980 | -100.66435 | 10128 ft | 367 kts | 160° |
| 2026-04-24 00:28 | 26.14649 | -100.65293 | 9682 ft | 364 kts | 159° |
| 2026-04-24 00:29 | 26.12336 | -100.64156 | 9176 ft | 361 kts | 159° |
| 2026-04-24 00:29 | 26.10043 | -100.63046 | 8687 ft | 357 kts | 159° |
| 2026-04-24 00:29 | 26.07905 | -100.61831 | 8332 ft | 338 kts | 147° |
| 2026-04-24 00:29 | 26.06300 | -100.60090 | 8297 ft | 309 kts | 130° |
| 2026-04-24 00:30 | 26.05061 | -100.58165 | 8278 ft | 304 kts | 124° |
| 2026-04-24 00:30 | 26.03989 | -100.56147 | 7910 ft | 301 kts | 121° |
| 2026-04-24 00:30 | 26.02953 | -100.54157 | 7489 ft | 290 kts | 122° |
| 2026-04-24 00:30 | 26.01968 | -100.52255 | 7063 ft | 277 kts | 121° |
| 2026-04-24 00:31 | 26.01030 | -100.50466 | 6644 ft | 265 kts | 121° |
| 2026-04-24 00:31 | 26.00051 | -100.48790 | 6220 ft | 253 kts | 125° |
| 2026-04-24 00:31 | 25.99061 | -100.47221 | 5803 ft | 244 kts | 125° |
| 2026-04-24 00:31 | 25.98072 | -100.45699 | 5382 ft | 243 kts | 125° |
| 2026-04-24 00:32 | 25.97069 | -100.44163 | 4960 ft | 249 kts | 125° |
| 2026-04-24 00:32 | 25.96047 | -100.42606 | 4602 ft | 251 kts | 125° |
| 2026-04-24 00:32 | 25.95041 | -100.41053 | 4305 ft | 238 kts | 122° |
| 2026-04-24 00:32 | 25.94186 | -100.39535 | 3978 ft | 226 kts | 122° |
| 2026-04-24 00:33 | 25.93352 | -100.38062 | 3696 ft | 224 kts | 122° |
| 2026-04-24 00:33 | 25.92526 | -100.36609 | 3539 ft | 220 kts | 121° |
| 2026-04-24 00:33 | 25.91726 | -100.35194 | 3468 ft | 213 kts | 121° |
| 2026-04-24 00:33 | 25.90963 | -100.33853 | 3452 ft | 203 kts | 121° |
| 2026-04-24 00:34 | 25.90222 | -100.32537 | 3352 ft | 199 kts | 120° |
| 2026-04-24 00:34 | 25.89480 | -100.31237 | 3209 ft | 201 kts | 122° |
| 2026-04-24 00:34 | 25.88701 | -100.29929 | 3225 ft | 204 kts | 122° |
| 2026-04-24 00:34 | 25.87964 | -100.28620 | 3396 ft | 196 kts | 119° |
| 2026-04-24 00:35 | 25.87260 | -100.27330 | 3419 ft | 195 kts | 120° |
| 2026-04-24 00:35 | 25.86552 | -100.26041 | 3353 ft | 196 kts | 120° |
| 2026-04-24 00:35 | 25.85845 | -100.24734 | 3316 ft | 197 kts | 121° |
| 2026-04-24 00:35 | 25.85137 | -100.23498 | 3234 ft | 181 kts | 121° |
| 2026-04-24 00:36 | 25.84490 | -100.22369 | 3065 ft | 165 kts | 120° |
| 2026-04-24 00:36 | 25.83886 | -100.21337 | 2831 ft | 154 kts | 121° |
| 2026-04-24 00:36 | 25.83337 | -100.20402 | 2671 ft | 140 kts | 120° |
| 2026-04-24 00:36 | 25.82836 | -100.19515 | 2518 ft | 132 kts | 122° |
| 2026-04-24 00:37 | 25.82347 | -100.18646 | 2467 ft | 133 kts | 121° |
| 2026-04-24 00:37 | 25.81859 | -100.17760 | 2401 ft | 134 kts | 121° |
| 2026-04-24 00:37 | 25.81371 | -100.16875 | 2320 ft | 134 kts | 122° |
| 2026-04-24 00:37 | 25.80885 | -100.15989 | 2244 ft | 135 kts | 121° |
| 2026-04-24 00:38 | 25.80559 | -100.15404 | 2164 ft | 134 kts | 121° |
| 2026-04-24 00:38 | 25.80024 | -100.14550 | 2023 ft | 135 kts | 126° |
| 2026-04-24 00:38 | 25.79495 | -100.13695 | 1841 ft | 133 kts | 121° |
| 2026-04-24 00:38 | 25.79016 | -100.12810 | 1608 ft | 134 kts | 119° |
| 2026-04-24 00:39 | 25.78379 | -100.11646 | 1356 ft | 133 kts | 122° |
| 2026-04-24 00:39 | 25.78069 | -100.11081 | 1335 ft | 112 kts | 122° |
| 2026-04-24 00:39 | 25.77752 | -100.10513 | 1335 ft | 61 kts | 121° |
| 2026-04-24 00:39 | 25.77565 | -100.10173 | 1335 ft | 48 kts | 121° |
| 2026-04-24 00:40 | 25.77424 | -100.09915 | 1335 ft | 31 kts | 121° |
| 2026-04-24 00:40 | 25.77332 | -100.09745 | 1335 ft | 21 kts | 121° |
| 2026-04-24 00:40 | 25.77292 | -100.09686 | 1335 ft | 2 kts | 158° |
| 2026-04-24 00:40 | 25.77262 | -100.09692 | 1335 ft | 5 kts | 201° |
| 2026-04-24 00:41 | 25.77220 | -100.09722 | 1338 ft | 10 kts | 213° |
| 2026-04-24 00:41 | 25.77159 | -100.09766 | 1335 ft | 11 kts | 213° |
| 2026-04-24 00:41 | 25.77151 | -100.09813 | 1335 ft | 7 kts | 288° |
| 2026-04-24 00:41 | 25.77205 | -100.09919 | 1335 ft | 19 kts | 302° |
| 2026-04-24 00:42 | 25.77277 | -100.10047 | 1335 ft | 20 kts | 301° |
| 2026-04-24 00:42 | 25.77350 | -100.10180 | 1335 ft | 20 kts | 301° |
| 2026-04-24 00:42 | 25.77424 | -100.10316 | 1335 ft | 21 kts | 301° |
| 2026-04-24 00:42 | 25.77501 | -100.10456 | 1335 ft | 22 kts | 301° |
| 2026-04-24 00:43 | 25.77579 | -100.10601 | 1335 ft | 22 kts | 301° |
| 2026-04-24 00:43 | 25.77661 | -100.10747 | 1335 ft | 23 kts | 302° |
| 2026-04-24 00:43 | 25.77739 | -100.10889 | 1335 ft | 18 kts | 301° |
| 2026-04-24 00:43 | 25.77790 | -100.10984 | 1335 ft | 14 kts | 300° |
| 2026-04-24 00:44 | 25.77834 | -100.11071 | 1335 ft | 10 kts | 289° |
| 2026-04-24 00:44 | 25.77804 | -100.11127 | 1335 ft | 9 kts | 213° |
| 2026-04-24 00:44 | 25.77748 | -100.11162 | 1335 ft | 10 kts | 196° |
| 2026-04-24 00:44 | 25.77691 | -100.11141 | 1335 ft | 9 kts | 132° |
| 2026-04-24 00:45 | 25.77656 | -100.11084 | 1338 ft | 9 kts | 123° |
| 2026-04-24 00:45 | 25.77649 | -100.11056 | 1335 ft | 1 kts | 72° |
| 2026-04-24 00:45 | 25.77656 | -100.11046 | 1335 ft | 3 kts | 56° |
| 2026-04-24 00:45 | 25.77671 | -100.11032 | 1335 ft | 3 kts | 36° |
| 2026-04-24 00:46 | 25.77693 | -100.11018 | 1335 ft | 4 kts | 29° |
| 2026-04-24 00:46 | 25.77711 | -100.11006 | 1335 ft | 0 kts | 31° |